Time;durP1;ratioP1;P1;durP2;ratioP2;P2;SDS_P1;SDS_P2;PMS_P1;PMS_P2;Temp;Humidity;BMP_temperature;BMP_pressure;BME280_temperature;BME280_humidity;BME280_pressure;Samples;Min_cycle;Max_cycle;Signal;HPM_P1;HPM_P2
2023/09/05 00:00:00;;;;;;;5.47;1.45;;;;;;;21.01;47.52;101149.41;5026972;28;20492;-74
2023/09/05 00:02:28;;;;;;;5.05;1.40;;;;;;;21.04;50.21;101155.50;5022816;28;20620;-76
2023/09/05 00:04:57;;;;;;;5.03;1.38;;;;;;;21.01;50.70;101150.28;5021211;28;20045;-75
2023/09/05 00:07:27;;;;;;;4.00;1.38;;;;;;;21.02;49.76;101146.75;5021940;28;20055;-77
2023/09/05 00:09:59;;;;;;;4.60;1.70;;;;;;;21.06;51.84;101144.97;5026425;28;20784;-76
2023/09/05 00:12:33;;;;;;;6.85;1.52;;;;;;;21.02;49.04;101136.22;5004892;28;20060;-77
2023/09/05 00:15:02;;;;;;;5.43;1.60;;;;;;;21.10;46.97;101144.94;5025855;28;20049;-76
2023/09/05 00:17:31;;;;;;;5.32;1.52;;;;;;;21.14;49.81;101148.41;5020801;28;20054;-75
2023/09/05 00:20:00;;;;;;;4.60;1.45;;;;;;;21.16;48.25;101143.13;5019727;28;20053;-75
2023/09/05 00:22:34;;;;;;;6.30;1.90;;;;;;;21.10;48.04;101133.53;5022181;28;20045;-76
2023/09/05 00:25:02;;;;;;;5.72;1.55;;;;;;;21.10;46.74;101139.69;5019221;28;20049;-76
2023/09/05 00:27:34;;;;;;;6.25;1.70;;;;;;;21.07;49.04;101136.19;5026669;28;20415;-78
2023/09/05 00:30:03;;;;;;;;;;;;;;;21.12;50.78;101153.69;5021609;28;20148;-76
2023/09/05 00:32:32;;;;;;;2.97;1.40;;;;;;;21.10;51.02;101144.06;5027555;28;19929;-75
2023/09/05 00:35:01;;;;;;;7.88;1.83;;;;;;;21.09;49.36;101145.81;5028825;28;20046;-75
2023/09/05 00:37:30;;;;;;;5.65;1.52;;;;;;;21.09;51.20;101135.28;5027250;28;20042;-76
2023/09/05 00:39:58;;;;;;;6.38;1.83;;;;;;;21.11;52.70;101140.53;5025915;28;20082;-77
2023/09/05 00:42:27;;;;;;;4.07;1.60;;;;;;;21.07;53.81;101139.72;5026873;28;20049;-76
2023/09/05 00:45:00;;;;;;;4.28;1.40;;;;;;;21.03;51.67;101137.13;5028132;28;20116;-76
2023/09/05 00:47:30;;;;;;;4.43;1.30;;;;;;;21.01;53.00;101138.88;5024884;28;20448;-76
2023/09/05 00:50:05;;;;;;;4.00;1.60;;;;;;;20.99;50.53;101133.63;5025601;28;20053;-77
2023/09/05 00:52:37;;;;;;;4.75;1.55;;;;;;;20.99;48.80;101128.34;5023655;28;20079;-76
2023/09/05 00:55:06;;;;;;;6.83;1.97;;;;;;;20.96;50.33;101127.50;5019922;28;20050;-76
2023/09/05 00:57:35;;;;;;;5.15;1.77;;;;;;;20.88;52.68;101127.56;5025089;28;20045;-75
2023/09/05 01:00:08;;;;;;;6.47;1.65;;;;;;;20.81;51.93;101125.88;5028585;28;20087;-75
2023/09/05 01:02:43;;;;;;;5.28;1.77;;;;;;;20.75;50.50;101125.88;5022303;28;20515;-77
2023/09/05 01:05:13;;;;;;;6.65;1.80;;;;;;;20.73;52.50;101127.66;5029249;28;20045;-76
2023/09/05 01:08:04;;;;;;;3.05;1.30;;;;;;;20.71;54.92;101125.06;5028731;28;20064;-77
2023/09/05 01:10:45;;;;;;;4.80;1.58;;;;;;;20.66;52.72;101119.81;5022180;28;20048;-76
2023/09/05 01:13:24;;;;;;;4.90;1.50;;;;;;;20.60;53.36;101122.47;5005902;28;20134;-77
2023/09/05 01:15:54;;;;;;;5.43;1.73;;;;;;;20.59;55.97;101126.00;5005131;28;20730;-76
2023/09/05 01:18:23;;;;;;;5.72;1.50;;;;;;;20.55;54.86;101125.97;4999314;28;20050;-76
2023/09/05 01:21:06;;;;;;;9.35;1.80;;;;;;;20.54;56.83;101126.88;5006448;28;20050;-76
2023/09/05 01:23:43;;;;;;;5.45;1.60;;;;;;;20.46;54.46;101122.53;5007543;28;20548;-76
2023/09/05 01:26:15;;;;;;;4.55;1.40;;;;;;;20.43;54.35;101119.03;5005764;28;20054;-76
2023/09/05 01:28:45;;;;;;;6.07;1.58;;;;;;;20.41;56.07;101118.16;5005277;28;20049;-74
2023/09/05 01:31:15;;;;;;;4.88;1.50;;;;;;;20.39;55.32;101118.19;5006030;28;20053;-76
2023/09/05 01:33:44;;;;;;;5.38;1.45;;;;;;;20.39;56.88;101112.94;5002696;28;20055;-74
2023/09/05 01:36:21;;;;;;;5.00;2.00;;;;;;;20.39;55.67;101117.31;5009616;28;20057;-74
2023/09/05 01:38:49;;;;;;;3.45;2.20;;;;;;;20.34;55.06;101109.47;5003792;28;20660;-75
2023/09/05 01:41:22;;;;;;;5.10;1.80;;;;;;;20.27;56.87;101110.34;5002798;28;20066;-74
2023/09/05 01:44:01;;;;;;;;;;;;;;;;;;;;;
2023/09/05 01:46:29;;;;;;;4.47;1.38;;;;;;;20.24;58.36;101108.63;5001521;28;20057;-72
2023/09/05 01:48:58;;;;;;;5.13;1.67;;;;;;;20.23;57.92;101111.28;5010718;28;20049;-74
2023/09/05 01:51:27;;;;;;;3.63;1.42;;;;;;;20.18;58.18;101111.28;5004748;28;20459;-72
2023/09/05 01:53:55;;;;;;;4.72;1.80;;;;;;;20.12;56.89;101108.69;5003853;28;20490;-73
2023/09/05 01:56:28;;;;;;;3.50;1.40;;;;;;;20.09;56.78;101108.72;5010924;28;20049;-73
2023/09/05 01:58:56;;;;;;;3.85;1.65;;;;;;;20.08;61.38;101104.31;5006524;28;20481;-74
2023/09/05 02:01:27;;;;;;;8.32;1.95;;;;;;;20.03;64.25;101106.09;5006337;28;20294;-72
2023/09/05 02:03:56;;;;;;;4.82;1.60;;;;;;;20.04;62.20;101107.81;5005007;28;20129;-72
2023/09/05 02:06:32;;;;;;;6.00;1.55;;;;;;;20.01;60.81;101110.47;5014751;28;20058;-75
2023/09/05 02:09:00;;;;;;;4.18;1.48;;;;;;;20.01;59.12;101106.09;5005849;28;20487;-75
2023/09/05 02:11:31;;;;;;;6.30;1.80;;;;;;;20.01;57.69;101105.22;5007976;28;20067;-75
2023/09/05 02:14:05;;;;;;;6.43;2.20;;;;;;;20.01;56.98;101115.72;5021350;28;20499;-75
2023/09/05 02:16:33;;;;;;;4.53;1.50;;;;;;;20.01;56.54;101110.47;5024708;28;20050;-75
2023/09/05 02:19:02;;;;;;;6.25;1.80;;;;;;;19.98;56.77;101105.25;5022026;28;20041;-75
2023/09/05 02:21:32;;;;;;;5.97;1.70;;;;;;;19.97;56.88;101106.09;5028337;28;20049;-74
2023/09/05 02:24:00;;;;;;;6.38;1.60;;;;;;;19.91;56.98;101103.53;5021535;28;20085;-73
2023/09/05 02:26:33;;;;;;;4.72;1.20;;;;;;;19.80;58.32;101093.91;5024070;28;20045;-77
2023/09/05 02:29:01;;;;;;;3.55;1.38;;;;;;;19.81;63.48;101103.56;5022694;28;21255;-75
2023/09/05 02:31:30;;;;;;;4.57;1.25;;;;;;;19.76;61.54;101100.03;5024841;28;20053;-74
2023/09/05 02:33:58;;;;;;;5.68;1.63;;;;;;;19.68;59.95;101093.94;5024427;28;20052;-75
2023/09/05 02:36:30;;;;;;;3.03;1.20;;;;;;;19.62;59.48;101096.56;5025986;28;20598;-74
2023/09/05 02:38:59;;;;;;;5.28;1.45;;;;;;;19.61;58.66;101093.06;5022504;28;20095;-75
2023/09/05 02:41:28;;;;;;;3.47;1.40;;;;;;;19.58;59.57;101100.06;5019143;28;20057;-74
2023/09/05 02:43:58;;;;;;;6.32;1.48;;;;;;;19.52;58.96;101097.47;5024643;28;20633;-74
2023/09/05 02:46:27;;;;;;;3.60;1.25;;;;;;;19.48;60.34;101096.59;5017009;28;20054;-74
2023/09/05 02:48:58;;;;;;;5.53;1.33;;;;;;;19.45;60.42;101089.59;5025530;28;20563;-73
2023/09/05 02:51:27;;;;;;;9.15;1.58;;;;;;;19.45;61.13;101107.97;5025704;28;20450;-73
2023/09/05 02:53:59;;;;;;;4.43;1.50;;;;;;;19.46;61.60;101101.81;5023598;28;20571;-73
2023/09/05 02:56:27;;;;;;;2.22;1.17;;;;;;;19.46;61.81;101099.19;5025309;28;20045;-72
2023/09/05 02:59:00;;;;;;;3.67;1.40;;;;;;;19.46;62.03;101095.72;5024612;28;20705;-73
2023/09/05 03:01:29;;;;;;;4.47;1.83;;;;;;;19.45;62.03;101100.09;5023633;28;20116;-73
2023/09/05 03:03:57;;;;;;;3.42;1.25;;;;;;;19.43;62.69;101100.97;5022015;28;20057;-74
2023/09/05 03:06:26;;;;;;;3.95;1.40;;;;;;;19.43;61.92;101107.09;5025596;28;20057;-73
2023/09/05 03:08:55;;;;;;;2.70;1.15;;;;;;;19.42;62.69;101110.59;5021212;28;20049;-72
2023/09/05 03:11:26;;;;;;;3.28;1.38;;;;;;;19.39;63.91;101104.47;5022177;28;20430;-73
2023/09/05 03:13:54;;;;;;;3.22;1.17;;;;;;;19.34;64.35;101112.34;5022023;28;20057;-72
2023/09/05 03:16:25;;;;;;;3.25;1.05;;;;;;;19.27;64.88;101110.59;5022790;28;20099;-75
2023/09/05 03:18:53;;;;;;;2.72;1.13;;;;;;;19.30;63.77;101125.47;5019962;28;20136;-74
2023/09/05 03:21:29;;;;;;;4.55;1.48;;;;;;;19.29;63.80;101119.34;5022697;28;20058;-74
2023/09/05 03:23:59;;;;;;;3.72;1.38;;;;;;;19.27;63.69;101126.34;5024346;28;20495;-74
2023/09/05 03:26:27;;;;;;;2.95;1.17;;;;;;;19.25;63.36;101128.09;5025926;28;20053;-73
2023/09/05 03:28:56;;;;;;;3.50;1.25;;;;;;;19.24;66.75;101121.97;5026909;28;20053;-75
2023/09/05 03:31:27;;;;;;;6.13;1.13;;;;;;;19.23;71.81;101130.72;5025711;28;20049;-75
2023/09/05 03:33:56;;;;;;;2.20;1.88;;;;;;;19.24;70.26;101126.34;5016546;28;20080;-74
2023/09/05 03:36:32;;;;;;;4.57;1.35;;;;;;;19.18;69.36;101121.97;5020605;28;20049;-73
2023/09/05 03:39:00;;;;;;;4.45;1.00;;;;;;;19.22;68.62;101130.72;5022113;28;20057;-74
2023/09/05 03:41:29;;;;;;;3.00;1.48;;;;;;;19.22;67.82;101139.47;5023412;28;20053;-74
2023/09/05 03:43:58;;;;;;;4.05;1.40;;;;;;;19.18;66.45;101140.34;5028093;28;20084;-74
2023/09/05 03:46:28;;;;;;;3.58;1.52;;;;;;;19.15;66.49;101135.09;5024987;28;20136;-74
2023/09/05 03:48:57;;;;;;;5.75;1.40;;;;;;;19.15;65.61;101136.81;5022480;28;20614;-74
2023/09/05 03:51:30;;;;;;;6.38;1.30;;;;;;;19.14;65.42;101135.97;5023412;28;20045;-74
2023/09/05 03:54:00;;;;;;;3.50;1.35;;;;;;;19.14;66.88;101138.59;5022788;28;20077;-76
2023/09/05 03:56:28;;;;;;;6.05;1.38;;;;;;;19.13;68.99;101133.34;5025148;28;20150;-75
2023/09/05 03:58:57;;;;;;;3.40;1.35;;;;;;;19.10;69.59;101135.97;5025579;28;20115;-74
2023/09/05 04:01:30;;;;;;;3.75;1.27;;;;;;;19.11;68.55;101137.72;5018905;28;20050;-73
2023/09/05 04:03:58;;;;;;;1.27;0.73;;;;;;;19.14;69.96;101140.34;5024329;28;20062;-74
2023/09/05 04:06:27;;;;;;;4.80;1.60;;;;;;;19.16;70.40;101144.72;5022159;28;20103;-74
2023/09/05 04:08:55;;;;;;;4.43;1.40;;;;;;;19.18;70.53;101142.97;5031301;28;20053;-73
2023/09/05 04:11:24;;;;;;;3.17;1.48;;;;;;;19.21;69.86;101150.81;5027542;28;20072;-72
2023/09/05 04:13:52;;;;;;;7.63;1.73;;;;;;;19.22;68.37;101149.09;5026180;28;20045;-73
2023/09/05 04:16:21;;;;;;;4.15;1.30;;;;;;;19.24;68.29;101153.47;5027680;28;20053;-73
2023/09/05 04:18:51;;;;;;;3.78;1.38;;;;;;;19.20;68.17;101143.84;5028396;28;20051;-72
2023/09/05 04:21:20;;;;;;;4.15;1.50;;;;;;;19.16;68.52;101147.31;5024200;28;20128;-75
2023/09/05 04:23:49;;;;;;;2.95;1.42;;;;;;;19.13;68.97;101147.34;5027685;28;20140;-73
2023/09/05 04:26:18;;;;;;;7.32;2.92;;;;;;;19.09;69.44;101142.09;5030354;28;20054;-74
2023/09/05 04:28:47;;;;;;;3.55;1.35;;;;;;;19.08;69.82;101142.94;5024156;28;20104;-74
2023/09/05 04:31:18;;;;;;;4.75;1.40;;;;;;;19.09;70.53;101144.72;5029962;28;20216;-73
2023/09/05 04:33:46;;;;;;;5.13;1.38;;;;;;;19.07;68.97;101136.84;5024211;28;20482;-73
2023/09/05 04:36:17;;;;;;;5.82;1.55;;;;;;;19.03;68.67;101138.59;5030838;28;20050;-72
2023/09/05 04:38:49;;;;;;;6.78;1.58;;;;;;;19.01;70.77;101134.19;5030997;28;20056;-72
2023/09/05 04:41:18;;;;;;;3.90;1.15;;;;;;;19.00;70.34;101135.09;5027522;28;20041;-73
2023/09/05 04:43:47;;;;;;;5.32;1.65;;;;;;;18.98;69.00;101140.31;5028374;28;20045;-72
2023/09/05 04:46:15;;;;;;;6.10;1.45;;;;;;;18.96;68.20;101136.81;5029785;28;20557;-72
2023/09/05 04:48:44;;;;;;;4.88;1.48;;;;;;;18.95;68.16;101139.47;5023726;28;20077;-72
2023/09/05 04:51:13;;;;;;;5.93;1.63;;;;;;;18.92;69.17;101140.34;5031382;28;20526;-71
2023/09/05 04:53:43;;;;;;;5.70;1.75;;;;;;;18.87;69.96;101142.03;5032488;28;20458;-71
2023/09/05 04:56:12;;;;;;;2.42;1.20;;;;;;;18.85;69.59;101143.78;5030095;28;20057;-73
2023/09/05 04:58:41;;;;;;;4.60;1.85;;;;;;;18.80;65.65;101141.16;5038253;28;20304;-71
2023/09/05 05:01:16;;;;;;;3.95;1.45;;;;;;;18.79;66.59;101155.16;5041828;28;20224;-71
2023/09/05 05:03:45;;;;;;;2.78;1.13;;;;;;;18.77;64.58;101145.53;5037730;28;20049;-72
2023/09/05 05:06:13;;;;;;;2.63;1.23;;;;;;;18.66;60.71;101136.75;5025943;28;20065;-71
2023/09/05 05:08:47;;;;;;;4.95;1.17;;;;;;;18.68;60.24;101145.50;5029350;28;20053;-71
2023/09/05 05:11:16;;;;;;;4.82;1.40;;;;;;;18.65;60.07;101142.88;5026192;28;20073;-72
2023/09/05 05:13:44;;;;;;;4.70;1.60;;;;;;;18.61;58.60;101145.47;5030018;28;20079;-73
2023/09/05 05:16:13;;;;;;;4.90;1.13;;;;;;;18.58;58.31;101134.97;5024412;28;20069;-73
2023/09/05 05:18:42;;;;;;;2.45;1.17;;;;;;;18.56;59.11;101139.34;5024987;28;20103;-75
2023/09/05 05:21:14;;;;;;;4.50;1.20;;;;;;;18.53;59.29;101136.72;5027097;28;20222;-75
2023/09/05 05:23:44;;;;;;;4.00;1.00;;;;;;;18.44;57.52;101136.69;5023133;28;20057;-72
2023/09/05 05:26:13;;;;;;;2.78;1.17;;;;;;;18.35;57.45;101140.16;5028039;28;20045;-73
2023/09/05 05:28:42;;;;;;;7.18;0.88;;;;;;;18.27;56.17;101127.91;5027650;28;20533;-74
2023/09/05 05:31:14;;;;;;;5.80;1.20;;;;;;;18.23;56.38;101129.63;5023488;28;20065;-71
2023/09/05 05:33:43;;;;;;;6.95;1.10;;;;;;;18.16;55.77;101131.34;5027626;28;20058;-75
2023/09/05 05:36:11;;;;;;;2.97;1.05;;;;;;;18.11;57.10;101127.81;5028141;28;20053;-76
2023/09/05 05:38:40;;;;;;;3.75;0.82;;;;;;;18.08;57.59;101134.81;5026569;28;20045;-75
2023/09/05 05:41:10;;;;;;;5.60;0.85;;;;;;;18.00;56.98;101134.75;5026113;28;20048;-76
2023/09/05 05:43:39;;;;;;;2.78;1.02;;;;;;;17.95;57.13;101126.00;5025466;28;20041;-75
2023/09/05 05:46:09;;;;;;;2.90;0.93;;;;;;;17.91;57.36;101126.84;5028651;28;20049;-74
2023/09/05 05:48:38;;;;;;;12.40;1.35;;;;;;;17.83;58.01;101123.34;5020488;28;20049;-74
2023/09/05 05:51:06;;;;;;;4.13;1.23;;;;;;;17.80;59.06;101124.16;5026903;28;20056;-73
2023/09/05 05:53:35;;;;;;;7.15;0.75;;;;;;;17.73;57.64;101135.44;5030161;28;20063;-73
2023/09/05 05:56:08;;;;;;;7.30;1.50;;;;;;;17.65;58.13;101129.28;5027032;28;20072;-76
2023/09/05 05:58:38;;;;;;;4.63;0.93;;;;;;;17.59;59.38;101132.72;5026288;28;20660;-75
2023/09/05 06:01:07;;;;;;;3.20;0.82;;;;;;;17.55;59.43;101128.38;5025893;28;20057;-75
2023/09/05 06:03:36;;;;;;;3.90;0.95;;;;;;;17.51;60.83;101130.06;5021542;28;20096;-76
2023/09/05 06:06:12;;;;;;;3.30;0.90;;;;;;;17.46;60.27;101131.78;5027641;28;20086;-75
2023/09/05 06:08:40;;;;;;;6.88;1.00;;;;;;;17.42;59.82;101123.91;5022174;28;20057;-74
2023/09/05 06:11:09;;;;;;;7.18;1.23;;;;;;;17.35;60.31;101113.38;5024746;28;20049;-75
2023/09/05 06:13:46;;;;;;;5.68;0.95;;;;;;;17.34;60.18;101115.97;5028037;28;20053;-75
2023/09/05 06:16:15;;;;;;;5.38;1.02;;;;;;;17.31;60.80;101124.69;5026373;28;20057;-73
2023/09/05 06:18:43;;;;;;;6.93;1.15;;;;;;;17.27;60.68;101127.25;5026380;28;20041;-74
2023/09/05 06:21:12;;;;;;;4.78;1.35;;;;;;;17.24;60.40;101120.28;5025318;28;20054;-74
2023/09/05 06:23:40;;;;;;;3.80;0.90;;;;;;;17.20;61.41;101121.09;5024097;28;20041;-73
2023/09/05 06:26:16;;;;;;;7.82;1.33;;;;;;;17.18;60.87;101128.09;5024924;28;20054;-74
2023/09/05 06:28:47;;;;;;;6.47;1.08;;;;;;;17.13;61.99;101124.53;5024662;28;20082;-74
2023/09/05 06:31:16;;;;;;;4.45;1.02;;;;;;;17.09;62.31;101120.16;5023041;28;20060;-75
2023/09/05 06:33:47;;;;;;;2.55;0.90;;;;;;;17.05;62.48;101118.38;5029512;28;20049;-76
2023/09/05 06:36:18;;;;;;;4.43;1.03;;;;;;;17.00;62.26;101127.94;5026298;28;20115;-73
2023/09/05 06:38:47;;;;;;;1.85;1.02;;;;;;;16.93;62.86;101119.16;5021238;28;20108;-73
2023/09/05 06:41:16;;;;;;;5.93;1.30;;;;;;;16.89;62.77;101128.69;5024606;28;20041;-74
2023/09/05 06:43:46;;;;;;;4.13;1.05;;;;;;;16.85;64.02;101116.44;5021574;28;20069;-73
2023/09/05 06:46:17;;;;;;;5.25;0.93;;;;;;;16.80;63.48;101115.53;5022978;28;20045;-75
2023/09/05 06:48:45;;;;;;;3.63;0.95;;;;;;;16.78;63.99;101114.59;5023977;28;20049;-76
2023/09/05 06:51:14;;;;;;;7.93;1.23;;;;;;;16.74;64.43;101116.34;5025107;28;20533;-73
2023/09/05 06:53:42;;;;;;;2.85;0.77;;;;;;;16.72;63.65;101110.22;5026212;28;20135;-74
2023/09/05 06:56:11;;;;;;;3.95;1.13;;;;;;;16.71;64.26;101115.41;5028612;28;20090;-74
2023/09/05 06:58:39;;;;;;;4.43;1.35;;;;;;;16.70;63.61;101121.50;5023917;28;20115;-74
2023/09/05 07:01:09;;;;;;;5.38;1.10;;;;;;;16.66;63.66;101114.50;5024039;28;20046;-74
2023/09/05 07:03:38;;;;;;;5.70;1.20;;;;;;;16.61;64.44;101119.69;5021051;28;20131;-76
2023/09/05 07:06:06;;;;;;;2.20;0.80;;;;;;;16.57;64.78;101115.28;5019913;28;20041;-75
2023/09/05 07:08:37;;;;;;;3.67;1.52;;;;;;;16.54;67.05;101120.47;5021971;28;20053;-74
2023/09/05 07:11:06;;;;;;;2.85;1.00;;;;;;;16.51;70.94;101123.03;5020980;28;20123;-76
2023/09/05 07:13:34;;;;;;;2.78;0.77;;;;;;;16.45;69.70;101117.75;5028720;28;20053;-73
2023/09/05 07:16:03;;;;;;;4.72;0.88;;;;;;;16.42;69.45;101121.19;5024941;28;20046;-70
2023/09/05 07:18:33;;;;;;;4.05;1.25;;;;;;;16.36;71.05;101122.88;5026094;28;20045;-75
2023/09/05 07:21:01;;;;;;;5.30;1.55;;;;;;;16.28;71.14;101122.78;5029827;28;20057;-74
2023/09/05 07:23:32;;;;;;;3.58;0.93;;;;;;;16.25;69.50;101114.91;5022010;28;20037;-75
2023/09/05 07:26:05;;;;;;;2.17;0.73;;;;;;;16.22;68.71;101122.72;5019437;28;20046;-70
2023/09/05 07:28:34;;;;;;;6.65;1.20;;;;;;;16.14;69.09;101120.00;5021926;28;20053;-75
2023/09/05 07:31:03;;;;;;;4.00;0.95;;;;;;;16.12;68.08;101114.75;5025771;28;20645;-75
2023/09/05 07:33:35;;;;;;;4.30;1.13;;;;;;;16.10;68.32;101113.88;5026198;28;20049;-75
2023/09/05 07:36:03;;;;;;;;;;;;;;;16.07;71.02;101118.16;5023382;28;20058;-74
2023/09/05 07:38:32;;;;;;;6.25;1.30;;;;;;;16.05;71.57;101117.25;5026322;28;19932;-71
2023/09/05 07:41:03;;;;;;;2.53;0.85;;;;;;;16.01;70.19;101124.19;5027531;28;20041;-72
2023/09/05 07:43:33;;;;;;;2.75;0.70;;;;;;;15.93;68.62;101112.78;5025706;28;20397;-71
2023/09/05 07:46:02;;;;;;;2.85;0.95;;;;;;;15.95;70.76;101113.66;5023852;28;20056;-74
2023/09/05 07:48:32;;;;;;;4.05;1.27;;;;;;;15.95;70.77;101118.88;5026192;28;20052;-74
2023/09/05 07:51:06;;;;;;;4.85;1.15;;;;;;;15.93;70.76;101114.50;5024116;28;20094;-75
2023/09/05 07:53:36;;;;;;;3.42;1.10;;;;;;;15.91;72.44;101119.69;5027073;28;20514;-76
2023/09/05 07:56:06;;;;;;;4.40;0.98;;;;;;;15.88;70.71;101122.28;5023797;28;20049;-75
2023/09/05 07:58:35;;;;;;;2.75;1.08;;;;;;;15.85;71.25;101117.00;5024732;28;20039;-71
2023/09/05 08:01:03;;;;;;;6.13;1.40;;;;;;;15.86;71.84;101118.75;5022962;28;20136;-74
2023/09/05 08:03:34;;;;;;;3.28;0.77;;;;;;;15.84;72.90;101115.25;5020827;28;20938;-75
2023/09/05 08:06:03;;;;;;;3.03;0.90;;;;;;;15.80;72.00;101116.06;5019053;28;20049;-77
2023/09/05 08:08:32;;;;;;;6.13;0.80;;;;;;;15.76;72.27;101115.16;5023041;28;20071;-75
2023/09/05 08:11:00;;;;;;;4.00;1.15;;;;;;;15.72;70.42;101115.09;5022745;28;20136;-75
2023/09/05 08:13:30;;;;;;;5.68;1.13;;;;;;;15.66;70.51;101119.31;5022027;28;20061;-76
2023/09/05 08:15:58;;;;;;;5.03;1.10;;;;;;;15.67;70.76;101125.44;5025254;28;20091;-76
2023/09/05 08:18:28;;;;;;;2.17;0.98;;;;;;;15.65;69.57;101120.19;5023935;28;20515;-71
2023/09/05 08:20:59;;;;;;;7.57;1.70;;;;;;;15.62;70.40;101121.84;5026646;28;20054;-76
2023/09/05 08:23:27;;;;;;;5.95;1.23;;;;;;;15.55;70.88;101120.88;5024524;28;20049;-76
2023/09/05 08:25:56;;;;;;;3.08;1.05;;;;;;;15.56;70.98;101122.66;5025898;28;20054;-75
2023/09/05 08:28:26;;;;;;;5.60;1.98;;;;;;;15.54;71.02;101124.38;5026335;28;20480;-75
2023/09/05 08:31:01;;;;;;;3.28;0.85;;;;;;;15.49;71.28;101131.25;5021345;28;20100;-74
2023/09/05 08:33:30;;;;;;;7.35;1.17;;;;;;;15.46;71.73;101128.56;5019637;28;20216;-75
2023/09/05 08:36:00;;;;;;;7.38;0.80;;;;;;;15.43;72.89;101125.94;5021665;28;20057;-74
2023/09/05 08:38:29;;;;;;;5.78;1.33;;;;;;;15.38;73.59;101130.19;5018913;28;20049;-75
2023/09/05 08:41:02;;;;;;;6.32;1.13;;;;;;;15.37;72.94;101128.44;5023960;28;20500;-76
2023/09/05 08:43:30;;;;;;;5.38;1.33;;;;;;;15.35;73.20;101119.72;5022167;28;20046;-76
2023/09/05 08:46:02;;;;;;;4.13;1.20;;;;;;;15.33;73.11;101131.88;5021564;28;20057;-74
2023/09/05 08:48:33;;;;;;;3.08;0.70;;;;;;;15.32;74.14;101124.88;5023090;28;20053;-75
2023/09/05 08:51:06;;;;;;;3.92;1.15;;;;;;;15.31;75.06;101128.34;5018930;28;20052;-75
2023/09/05 08:53:37;;;;;;;;;;;;;;;15.28;74.36;101124.84;5020582;28;20171;-75
2023/09/05 08:56:07;;;;;;;3.58;1.00;;;;;;;15.26;74.18;101131.75;5026804;28;19929;-75
2023/09/05 08:58:36;;;;;;;5.97;1.17;;;;;;;15.24;75.11;101130.84;5027170;28;20525;-75
2023/09/05 09:01:04;;;;;;;2.78;0.70;;;;;;;15.23;74.92;101136.94;5026339;28;20135;-75
2023/09/05 09:03:35;;;;;;;4.15;1.23;;;;;;;15.19;75.28;101129.03;5024548;28;20057;-75
2023/09/05 09:06:10;;;;;;;7.07;1.10;;;;;;;15.18;75.68;101128.13;5028554;28;20047;-74
2023/09/05 09:08:44;;;;;;;2.50;0.93;;;;;;;15.16;75.23;101124.63;5027356;28;20045;-75
2023/09/05 09:11:13;;;;;;;6.03;1.02;;;;;;;15.17;74.82;101121.19;5028008;28;20041;-75
2023/09/05 09:14:00;;;;;;;2.72;0.98;;;;;;;15.20;76.53;101123.81;5005298;28;20072;-76
2023/09/05 09:16:29;;;;;;;2.90;0.80;;;;;;;15.19;76.79;101113.41;4999410;28;20045;-75
2023/09/05 09:19:06;;;;;;;5.68;1.30;;;;;;;15.18;74.79;101117.69;4999400;28;20108;-75
2023/09/05 09:21:38;;;;;;;2.75;1.05;;;;;;;15.21;75.80;101112.56;5007656;28;20054;-75
2023/09/05 09:24:10;;;;;;;3.58;1.00;;;;;;;15.22;76.94;101114.31;5010298;28;20085;-75
2023/09/05 09:26:40;;;;;;;3.80;1.15;;;;;;;15.22;76.64;101103.00;5011819;28;20046;-74
2023/09/05 09:29:16;;;;;;;3.17;1.23;;;;;;;15.20;76.11;101097.75;5004339;28;20516;-76
2023/09/05 09:31:46;;;;;;;3.83;0.82;;;;;;;15.19;75.35;101098.63;5008910;28;20053;-75
2023/09/05 09:34:20;;;;;;;7.97;1.25;;;;;;;15.16;76.68;101098.56;5007335;28;20551;-75
2023/09/05 09:36:58;;;;;;;8.18;1.63;;;;;;;15.17;77.51;101100.31;5006417;28;20461;-75
2023/09/05 09:39:27;;;;;;;5.40;1.17;;;;;;;15.17;77.46;101094.25;5003145;28;20153;-75
2023/09/05 09:41:59;;;;;;;2.42;1.10;;;;;;;15.17;77.32;101095.13;5005765;28;20295;-74
2023/09/05 09:44:31;;;;;;;5.68;1.50;;;;;;;15.15;75.98;101090.72;5005269;28;20557;-75
2023/09/05 09:47:01;;;;;;;4.80;1.10;;;;;;;15.10;77.59;101090.66;5002652;28;20412;-74
2023/09/05 09:49:32;;;;;;;5.18;1.10;;;;;;;15.08;79.27;101087.16;5003533;28;20056;-75
2023/09/05 09:52:07;;;;;;;2.97;0.80;;;;;;;15.07;77.20;101088.88;4999024;28;20062;-75
2023/09/05 09:54:39;;;;;;;1.63;1.17;;;;;;;15.05;76.75;101087.09;5005205;28;20098;-75
2023/09/05 09:57:12;;;;;;;2.72;1.25;;;;;;;15.04;77.56;101095.75;5002664;28;20053;-75
2023/09/05 09:59:51;;;;;;;3.72;1.10;;;;;;;15.03;75.95;101091.41;5006136;28;20041;-75
2023/09/05 10:02:22;;;;;;;8.15;1.13;;;;;;;15.01;75.39;101091.38;5007231;28;20049;-74
2023/09/05 10:04:53;;;;;;;4.95;1.05;;;;;;;15.01;75.90;101090.50;5004328;28;20045;-75
2023/09/05 10:07:24;;;;;;;3.55;1.10;;;;;;;14.99;76.41;101089.59;5004885;28;20068;-75
2023/09/05 10:09:54;;;;;;;7.10;1.40;;;;;;;14.98;75.49;101099.16;5004759;28;20115;-74
2023/09/05 10:12:32;;;;;;;9.80;1.52;;;;;;;14.93;76.37;101095.56;5006491;28;20065;-75
2023/09/05 10:15:04;;;;;;;4.35;1.00;;;;;;;14.88;75.92;101092.88;5007718;28;20061;-75
2023/09/05 10:17:37;;;;;;;4.90;1.48;;;;;;;14.85;76.05;101092.84;5006800;28;20049;-74
2023/09/05 10:20:14;;;;;;;2.88;0.93;;;;;;;14.81;75.49;101096.25;5007519;28;20054;-75
2023/09/05 10:22:44;;;;;;;2.67;1.05;;;;;;;14.77;75.73;101083.13;5014060;28;20048;-74
2023/09/05 10:25:15;;;;;;;2.63;1.20;;;;;;;14.75;75.64;101092.63;5017368;28;20042;-75
2023/09/05 10:27:44;;;;;;;2.67;1.00;;;;;;;14.72;75.15;101096.06;5023376;28;20046;-76
2023/09/05 10:30:13;;;;;;;2.75;1.05;;;;;;;14.68;75.37;101093.38;5024461;28;20065;-76
2023/09/05 10:32:44;;;;;;;1.52;0.93;;;;;;;14.64;75.27;101089.88;5029316;28;20050;-76
2023/09/05 10:35:19;;;;;;;5.45;1.30;;;;;;;14.60;74.95;101095.88;5017084;28;20144;-74
2023/09/05 10:38:01;;;;;;;5.55;1.20;;;;;;;14.59;74.52;101088.88;5002661;28;20182;-76
2023/09/05 10:40:39;;;;;;;6.32;1.20;;;;;;;14.55;75.41;101093.19;5006551;28;20145;-76
2023/09/05 10:43:10;;;;;;;2.63;0.98;;;;;;;14.52;76.03;101092.19;5004141;28;20053;-75
2023/09/05 10:45:39;;;;;;;2.78;1.05;;;;;;;14.49;76.66;101087.81;5000823;28;20050;-71
2023/09/05 10:48:15;;;;;;;1.75;0.93;;;;;;;14.44;75.85;101079.91;4998346;28;20050;-75
2023/09/05 10:51:22;;;;;;;2.88;1.13;;;;;;;14.42;76.67;101079.00;5009287;28;20097;-75
2023/09/05 10:53:52;;;;;;;3.83;0.85;;;;;;;14.42;78.18;101078.13;5005262;28;20435;-75
2023/09/05 10:56:43;;;;;;;3.53;1.02;;;;;;;14.41;77.71;101079.00;5007600;28;20045;-75
2023/09/05 10:59:13;;;;;;;3.22;1.25;;;;;;;14.42;76.88;101081.59;5007453;28;20045;-75
2023/09/05 11:01:56;;;;;;;6.10;1.33;;;;;;;14.39;76.58;101080.69;5004476;28;20116;-73
2023/09/05 11:04:31;;;;;;;3.72;0.85;;;;;;;14.37;77.30;101080.66;5005584;28;20053;-74
2023/09/05 11:07:05;;;;;;;2.80;1.20;;;;;;;14.36;77.60;101071.09;5004095;28;20045;-74
2023/09/05 11:09:48;;;;;;;1.80;1.00;;;;;;;14.31;78.08;101072.72;5005773;28;20046;-74
2023/09/05 11:12:17;;;;;;;1.55;0.80;;;;;;;14.31;77.88;101071.84;5006333;28;20140;-75
2023/09/05 11:14:46;;;;;;;2.33;0.77;;;;;;;14.29;78.38;101074.41;5004319;28;20103;-75
2023/09/05 11:17:16;;;;;;;1.38;0.77;;;;;;;14.26;78.14;101066.53;5002637;28;20056;-72
2023/09/05 11:19:47;;;;;;;1.60;1.00;;;;;;;14.27;78.43;101075.22;5004759;28;20053;-74
2023/09/05 11:22:19;;;;;;;6.32;0.90;;;;;;;14.23;77.67;101069.97;4999268;28;20057;-76
2023/09/05 11:24:58;;;;;;;4.82;1.13;;;;;;;14.24;79.88;101076.03;5002844;28;20108;-74
2023/09/05 11:27:29;;;;;;;2.80;1.10;;;;;;;14.19;78.38;101073.34;5003470;28;20127;-73
2023/09/05 11:30:01;;;;;;;7.60;1.40;;;;;;;14.17;78.38;101071.56;5001775;28;20157;-74
2023/09/05 11:32:33;;;;;;;8.63;1.35;;;;;;;14.17;77.51;101063.75;4999338;28;20096;-74
2023/09/05 11:35:03;;;;;;;6.47;1.30;;;;;;;14.19;78.75;101068.16;5003093;28;20108;-75
2023/09/05 11:37:32;;;;;;;2.05;0.70;;;;;;;14.18;81.46;101060.34;5006276;28;20050;-72
2023/09/05 11:40:14;;;;;;;2.15;0.90;;;;;;;14.16;80.80;101062.03;5008806;28;20053;-74
2023/09/05 11:42:43;;;;;;;2.20;0.70;;;;;;;14.15;75.92;101057.66;5007867;28;20168;-74